20:07
Airports
History
Links
Donate
Help keep this website running!
PayPal
Bitcoin
This page is community maintained. The information is intended for PC simulator navigation or reference.
Always use approved charts for navigation.
ESSB
BROMMA
BROMMA (ESSB)
Stockholm, Stockholm County, Sweden (16858)
(C)
Lat/Lng:59° 21' 15.8" N / 17° 56' 29.77" E
59.354389 / 17.941604
Elevation:47'ft / 14mMSL
ID / ICAO:ESSB
Runways:1
Longest:12-30
Asphalt 1,883m / 6,177ft
Controlled:Yes
METAR19:50 GMT 2017-11-22
Altimeter: 29.65
Visibility: 6.2 statute miles
Wind: 17 knots (from 120°)
Temp: 3°c / 37°f
Humidity: 86.7%

METAR: ESSB 221950Z 12017KT 9999 -RA FEW014 SCT022 OVC029 03/01 Q1004 R12/29//67

(Powered by phpweather)
Airport Radio Frequencies
ATIS: 122.45
Ground: 121.6
Tower: 118.1, 119.4
Approach: 120.15, 123.3
Nearby VORs <50NM
Nearby NDBs
Runway 12 / 30
Dimensions:1882.9 x 45.1m 6177' x 148'ft
Surface:Asphalt
Edge Lights:Low intensity
Runway 12 [A]Runway 30 [B]
Heading:125°TH 305°TH
Lat:
Lng:
59° 21' 33.38"N
17° 55' 40.66"E
59° 20' 58.22"N
17° 57' 18.89"E
ALS:CalvertCalvert ILS Cat II
TDZ:Yes, lighted
User Notes and Comments
59° 21' 15.8" N / 17° 56' 29.77" E
Distance To
Airport ID:
Nearby Airports
(U) Barkarby 4.8 NM
ESKB NNW 338°
4 Stockholm Ska Edeby 7.1 NM
ESSE W 264°
(C) Frolunda 10.5 NM
ESVF NW 313°
4 Vallentuna 13.2 NM
ES01 NNE 14°
4 Lindholmen 17.6 NM
ES04 NNE 32°
(C) Stockholm Arlanda 20.2 NM
ESSA N
4 Hova 26.2 NM
ES03 NNW 343°
VFR Chart
Flight Planning at SkyVector.com